09:22
Airports
History
Links
Donate
Help keep this website running!
PayPal
Bitcoin
Information on this page is community maintained and may be outdated or inaccurate and is intended for reference only or PC simulator navigating.
Always use approved charts for navigating.
SBCI
CAROLINA
CAROLINA (SBCI)
Carolina, Maranhao, Brazil (65980)
(C)
Lat/Lng:7° 19' 13.55" S / 47° 27' 31.2" W
-7.320431 / -47.458667
Elevation:565'ft 172mMSL
ID / ICAO:SBCI
Runways:1
Longest:(11-29) 1,802.5m 5,914ft Asphalt
Controlled:Yes
Distance To
Airport ID:
Airport Radio Frequencies
Tower: 126.6
METARUpdated 05-25-17 20:00 GMT
Altimeter: 29.88
Visibility: 6.2 statute miles
Wind: 4 knots (110°)
Temp: 34°c 93°f
Humidity: 49.7%

METAR: SBCI 252000Z 11004KT 9999 FEW025 34/22 Q1012

(Powered by phpweather)
Runway 11 / 29
Dimensions:1802.5 x 45.1m 5914' x 148'ft
Surface:Asphalt
Edge Lights:Low intensity
Runway 11 [A]Runway 29 [B]
Heading:085°TH 265°TH
Lat:
Lng:
7° 19' 15.8"S
47° 28' 0.5"W
7° 19' 11.3"S
47° 27' 1.9"W
User Notes and Comments
Google Map
Nearby Airports
(C) Araguaina 54.0 NM
SWGN W 276°
(C) Riachao 56.6 NM
SNRX E 92°
4 Fazenda Santa Monica 78.1 NM
SNVQ NW 314°
(U) FAZENDA BELA VISTA 80.1 NM
SB29 WNW 292°
(U) Vista Alegre 80.1 NM
SJOT WNW 292°
4 Fazenda Alvorada 89.4 NM
SNHC W 270°
(U) Fazenda Novo Horizonte 90.5 NM
SSUI W 279°
VFR Chart
Flight Planning at SkyVector.com